Time;durP1;ratioP1;P1;durP2;ratioP2;P2;SDS_P1;SDS_P2;PMS_P1;PMS_P2;Temp;Humidity;BMP_temperature;BMP_pressure;BME280_temperature;BME280_humidity;BME280_pressure;Samples;Min_cycle;Max_cycle;Signal;HPM_P1;HPM_P2
2022/03/20 00:01:18;;;;;;;4.50;2.00;;;7.80;82.00;;;;;;4976195;28;20636;-50
2022/03/20 00:03:45;;;;;;;4.13;2.10;;;7.80;99.30;;;;;;4976877;28;20217;-50
2022/03/20 00:06:11;;;;;;;4.77;2.37;;;7.70;99.90;;;;;;4975002;28;20602;-51
2022/03/20 00:08:38;;;;;;;4.03;2.23;;;7.60;99.90;;;;;;4975405;28;20732;-48
2022/03/20 00:11:05;;;;;;;3.57;2.53;;;7.70;99.90;;;;;;4976802;28;20305;-51
2022/03/20 00:13:32;;;;;;;4.97;2.60;;;7.70;99.90;;;;;;4977427;28;20299;-50
2022/03/20 00:15:59;;;;;;;4.37;2.50;;;7.70;99.90;;;;;;4979143;28;20237;-51
2022/03/20 00:18:26;;;;;;;4.87;2.20;;;7.70;99.90;;;;;;4976661;28;20263;-51
2022/03/20 00:20:57;;;;;;;3.40;2.40;;;7.60;99.90;;;;;;4977151;28;20236;-53
2022/03/20 00:23:24;;;;;;;4.47;2.47;;;7.50;99.90;;;;;;4978621;28;20235;-50
2022/03/20 00:25:53;;;;;;;4.63;2.57;;;7.60;99.90;;;;;;4977587;28;20302;-52
2022/03/20 00:28:23;;;;;;;5.67;2.70;;;7.70;99.90;;;;;;4978254;28;20564;-50
2022/03/20 00:30:51;;;;;;;4.20;2.50;;;7.60;99.90;;;;;;4976847;28;20217;-52
2022/03/20 00:33:18;;;;;;;7.63;2.57;;;7.60;99.90;;;;;;4977244;28;20293;-51
2022/03/20 00:35:45;;;;;;;4.30;2.53;;;7.60;99.90;;;;;;4977798;28;20210;-50
2022/03/20 00:38:13;;;;;;;4.10;2.20;;;7.50;99.90;;;;;;4978273;28;20633;-50
2022/03/20 00:40:40;;;;;;;4.83;2.70;;;7.40;99.90;;;;;;4975925;28;20267;-52
2022/03/20 00:43:07;;;;;;;6.00;2.70;;;7.40;99.90;;;;;;4977459;28;20223;-52
2022/03/20 00:45:34;;;;;;;4.63;2.53;;;7.40;99.90;;;;;;4978037;28;20239;-51
2022/03/20 00:48:01;;;;;;;4.57;2.93;;;7.30;99.90;;;;;;4974092;28;20248;-52
2022/03/20 00:50:29;;;;;;;4.20;2.50;;;7.30;99.90;;;;;;4972870;28;20233;-52
2022/03/20 00:52:57;;;;;;;6.40;3.37;;;7.20;1.00;;;;;;4976941;28;20270;-50
2022/03/20 00:55:24;;;;;;;7.43;3.33;;;7.20;1.00;;;;;;4976564;28;20304;-53
2022/03/20 00:57:51;;;;;;;4.07;3.10;;;7.30;1.00;;;;;;4978463;28;20950;-51
2022/03/20 01:00:18;;;;;;;6.23;4.20;;;7.20;1.00;;;;;;4974555;28;20314;-50
2022/03/20 01:02:45;;;;;;;4.93;3.80;;;7.20;1.00;;;;;;4977066;28;20688;-49
2022/03/20 01:05:13;;;;;;;5.07;3.07;;;7.20;1.00;;;;;;4974115;28;20210;-50
2022/03/20 01:07:41;;;;;;;9.30;3.70;;;7.20;1.00;;;;;;4976245;28;20226;-51
2022/03/20 01:10:09;;;;;;;6.80;4.13;;;7.10;1.00;;;;;;4977706;28;20205;-49
2022/03/20 01:12:37;;;;;;;5.83;3.43;;;7.00;1.00;;;;;;4976100;28;21671;-53
2022/03/20 01:15:06;;;;;;;8.17;3.17;;;7.00;1.00;;;;;;4977203;28;20557;-52
2022/03/20 01:17:34;;;;;;;7.20;3.57;;;7.00;1.00;;;;;;4977328;28;20243;-50
2022/03/20 01:20:01;;;;;;;5.57;3.50;;;7.00;1.00;;;;;;4975902;28;20326;-53
2022/03/20 01:22:28;;;;;;;7.87;4.03;;;7.00;1.00;;;;;;4973913;28;20223;-52
2022/03/20 01:24:55;;;;;;;6.07;3.90;;;7.00;1.00;;;;;;4974645;28;20226;-51
2022/03/20 01:27:22;;;;;;;5.97;4.07;;;6.90;1.00;;;;;;4976438;28;20737;-51
2022/03/20 01:29:49;;;;;;;6.03;4.70;;;6.80;1.00;;;;;;4972764;28;20707;-53
2022/03/20 01:32:16;;;;;;;7.47;5.00;;;6.80;1.00;;;;;;4977558;28;20424;-50
2022/03/20 01:34:44;;;;;;;7.33;5.37;;;6.80;1.00;;;;;;4975707;28;20665;-49
2022/03/20 01:37:11;;;;;;;9.37;5.10;;;6.80;1.00;;;;;;4974892;28;21098;-51
2022/03/20 01:39:38;;;;;;;12.13;6.43;;;6.70;1.00;;;;;;4974971;28;20212;-53
2022/03/20 01:42:07;;;;;;;9.60;6.30;;;6.80;1.00;;;;;;4976072;28;20198;-51
2022/03/20 01:44:35;;;;;;;10.60;5.83;;;6.80;1.00;;;;;;4975831;28;20534;-55
2022/03/20 01:47:05;;;;;;;10.53;5.30;;;6.70;1.00;;;;;;4978145;28;20293;-48
2022/03/20 01:49:32;;;;;;;7.10;5.50;;;6.60;1.00;;;;;;4975691;28;20237;-53
2022/03/20 01:52:11;;;;;;;8.13;5.67;;;6.50;1.00;;;;;;4973784;28;21709;-51
2022/03/20 01:54:44;;;;;;;8.17;5.07;;;6.50;1.00;;;;;;4974968;28;20197;-51
2022/03/20 01:57:20;;;;;;;10.13;6.03;;;6.40;99.90;;;;;;4970300;28;21857;-50
2022/03/20 01:59:48;;;;;;;8.90;5.20;;;6.30;99.90;;;;;;4975467;28;20202;-52
2022/03/20 02:02:15;;;;;;;8.27;5.20;;;6.30;99.90;;;;;;4977651;28;20204;-51
2022/03/20 02:04:42;;;;;;;8.93;5.23;;;6.20;99.90;;;;;;4974913;28;20197;-50
2022/03/20 02:07:09;;;;;;;6.73;4.97;;;6.10;99.90;;;;;;4979250;28;20236;-51
2022/03/20 02:09:37;;;;;;;9.90;5.73;;;6.20;99.90;;;;;;4978326;28;20227;-51
2022/03/20 02:12:05;;;;;;;10.03;5.00;;;6.20;99.90;;;;;;4979092;28;20263;-50
2022/03/20 02:14:34;;;;;;;7.70;4.57;;;6.10;99.90;;;;;;4978245;28;20229;-50
2022/03/20 02:17:02;;;;;;;12.10;5.40;;;6.10;99.90;;;;;;4978463;28;20697;-50
2022/03/20 02:19:29;;;;;;;9.90;5.60;;;6.00;1.00;;;;;;4973451;28;20651;-52
2022/03/20 02:21:57;;;;;;;8.63;5.00;;;6.00;1.00;;;;;;4978479;28;20302;-53
2022/03/20 02:24:40;;;;;;;9.53;6.60;;;5.90;1.00;;;;;;4978547;28;20248;-51
2022/03/20 02:27:14;;;;;;;7.93;4.90;;;6.00;1.00;;;;;;4977288;28;20268;-51
2022/03/20 02:29:43;;;;;;;9.80;6.97;;;5.90;1.00;;;;;;4978106;28;20877;-50
2022/03/20 02:32:12;;;;;;;11.23;6.80;;;5.80;1.00;;;;;;4977656;28;20283;-53
2022/03/20 02:34:40;;;;;;;11.27;7.47;;;5.90;99.90;;;;;;4977921;28;20310;-53
2022/03/20 02:37:08;;;;;;;12.40;7.23;;;6.00;99.90;;;;;;4979557;28;20958;-51
2022/03/20 02:39:35;;;;;;;12.23;6.67;;;6.00;99.90;;;;;;4975541;28;20299;-51
2022/03/20 02:42:05;;;;;;;10.40;7.50;;;6.00;99.90;;;;;;4979465;28;20742;-53
2022/03/20 02:45:03;;;;;;;11.90;7.87;;;6.00;99.90;;;;;;4982604;28;21513;-52
2022/03/20 02:47:41;;;;;;;11.87;7.93;;;5.80;1.00;;;;;;4977858;28;20578;-52
2022/03/20 02:50:11;;;;;;;12.97;8.20;;;5.80;99.90;;;;;;4974991;28;20294;-53
2022/03/20 02:52:56;;;;;;;12.33;8.23;;;5.90;99.90;;;;;;4973885;28;20335;-50
2022/03/20 02:55:27;;;;;;;13.83;8.97;;;5.70;99.90;;;;;;4973651;28;20225;-54
2022/03/20 02:57:56;;;;;;;14.40;8.87;;;5.80;99.90;;;;;;4977647;28;20485;-52
2022/03/20 03:00:28;;;;;;;13.60;9.10;;;5.90;99.90;;;;;;4975016;28;20735;-52
2022/03/20 03:02:58;;;;;;;15.77;9.33;;;5.80;99.90;;;;;;4976810;28;20668;-50
2022/03/20 03:05:28;;;;;;;11.13;8.03;;;5.70;1.00;;;;;;4979063;28;20562;-51
2022/03/20 03:10:55;;;;;;;11.23;7.87;;;5.70;1.00;;;;;;4976309;28;20290;-51
2022/03/20 03:13:23;;;;;;;13.40;9.33;;;5.70;1.00;;;;;;4976713;28;20661;-49
2022/03/20 03:15:55;;;;;;;14.83;9.27;;;5.60;1.00;;;;;;4973674;28;20266;-51
2022/03/20 03:18:22;;;;;;;14.23;9.73;;;5.70;1.00;;;;;;4973571;28;20203;-54
2022/03/20 03:20:50;;;;;;;13.53;9.50;;;5.70;1.00;;;;;;4976116;28;20222;-52
2022/03/20 03:23:20;;;;;;;16.23;9.57;;;5.60;1.00;;;;;;4978152;28;20254;-52
2022/03/20 03:25:47;;;;;;;15.97;8.83;;;5.50;1.00;;;;;;4976081;28;20248;-50
2022/03/20 03:28:14;;;;;;;12.10;8.63;;;5.50;1.00;;;;;;4975456;28;20291;-49
2022/03/20 03:30:44;;;;;;;14.93;9.13;;;5.50;1.00;;;;;;4976481;28;20317;-49
2022/03/20 03:33:12;;;;;;;14.13;9.17;;;5.50;1.00;;;;;;4976487;28;20293;-52
2022/03/20 03:35:42;;;;;;;12.73;8.70;;;5.50;1.00;;;;;;4978867;28;20302;-54
2022/03/20 03:38:17;;;;;;;13.33;9.13;;;5.50;1.00;;;;;;4978668;28;20266;-52
2022/03/20 03:40:45;;;;;;;12.97;8.53;;;5.40;1.00;;;;;;4976861;28;20304;-52
2022/03/20 03:43:15;;;;;;;13.23;9.30;;;5.50;1.00;;;;;;4979881;28;20626;-51
2022/03/20 03:45:43;;;;;;;14.47;8.80;;;5.50;1.00;;;;;;4974726;28;20233;-50
2022/03/20 03:48:11;;;;;;;14.53;10.57;;;5.50;1.00;;;;;;4980190;28;20239;-51
2022/03/20 03:50:40;;;;;;;12.37;8.67;;;5.50;1.00;;;;;;4975327;28;20205;-52
2022/03/20 03:53:09;;;;;;;14.03;9.50;;;5.40;1.00;;;;;;4977478;28;20206;-51
2022/03/20 03:55:38;;;;;;;15.43;8.27;;;5.30;99.90;;;;;;4976116;28;20834;-51
2022/03/20 03:58:05;;;;;;;14.60;8.60;;;5.40;1.00;;;;;;4976586;28;20332;-52
2022/03/20 04:00:33;;;;;;;13.17;8.67;;;5.40;1.00;;;;;;4977200;28;20220;-52
2022/03/20 04:03:00;;;;;;;14.57;9.30;;;5.30;1.00;;;;;;4977251;28;20233;-53
2022/03/20 04:05:28;;;;;;;12.90;8.97;;;5.40;1.00;;;;;;4977861;28;20305;-52
2022/03/20 04:07:56;;;;;;;14.23;8.57;;;5.30;1.00;;;;;;4973414;28;20695;-51
2022/03/20 04:10:23;;;;;;;14.73;8.90;;;5.30;99.90;;;;;;4977565;28;20680;-52
2022/03/20 04:12:50;;;;;;;15.03;8.97;;;5.20;99.90;;;;;;4976522;28;20693;-52
2022/03/20 04:15:25;;;;;;;14.73;9.53;;;5.30;99.90;;;;;;4973729;28;20213;-52
2022/03/20 04:17:52;;;;;;;13.43;9.03;;;5.20;99.90;;;;;;4977690;28;20239;-52
2022/03/20 04:20:20;;;;;;;11.73;8.07;;;5.30;99.90;;;;;;4974293;28;20326;-52
2022/03/20 04:25:33;;;;;;;12.73;8.27;;;5.40;1.00;;;;;;4976664;28;20260;-54
2022/03/20 04:28:01;;;;;;;11.87;8.57;;;5.20;99.90;;;;;;4976791;28;20664;-52
2022/03/20 04:30:31;;;;;;;14.07;10.07;;;5.20;99.90;;;;;;4974197;28;20494;-51
2022/03/20 04:32:59;;;;;;;14.20;8.27;;;5.10;99.90;;;;;;4974834;28;20339;-52
2022/03/20 04:35:25;;;;;;;14.00;9.00;;;5.20;99.90;;;;;;4979630;28;20206;-52
2022/03/20 04:37:59;;;;;;;13.07;8.60;;;5.20;99.90;;;;;;4976272;28;20215;-50
2022/03/20 04:40:25;;;;;;;12.10;8.33;;;5.00;99.90;;;;;;4974620;28;20249;-51
2022/03/20 04:42:52;;;;;;;19.30;8.73;;;5.10;99.90;;;;;;4977260;28;21627;-53
2022/03/20 04:45:19;;;;;;;11.73;8.63;;;5.30;99.90;;;;;;4981398;28;20568;-52
2022/03/20 04:58:48;;;;;;;12.70;8.60;;;5.20;99.90;;;;;;4977186;28;20245;-53
2022/03/20 05:01:14;;;;;;;14.00;8.90;;;5.10;19.60;;;;;;4975396;28;20199;-59
2022/03/20 05:03:42;;;;;;;11.57;8.70;;;5.00;99.90;;;;;;4978180;28;20321;-52
2022/03/20 05:06:08;;;;;;;16.70;8.60;;;5.00;96.50;;;;;;4976508;28;20331;-52
2022/03/20 05:08:39;;;;;;;12.40;8.40;;;5.10;1.00;;;;;;4976236;28;20199;-50
2022/03/20 05:13:52;;;;;;;15.00;8.17;;;5.00;1.00;;;;;;4978251;28;20316;-53
2022/03/20 05:16:19;;;;;;;15.57;9.20;;;5.00;1.00;;;;;;4975957;28;20203;-51
2022/03/20 05:18:46;;;;;;;11.30;8.70;;;5.00;81.80;;;;;;4976203;28;20213;-52
2022/03/20 05:21:13;;;;;;;13.07;8.43;;;4.90;99.90;;;;;;4975653;28;20233;-52
2022/03/20 05:23:40;;;;;;;14.90;9.17;;;4.90;99.90;;;;;;4977869;28;20318;-52
2022/03/20 05:26:07;;;;;;;17.87;9.00;;;5.00;31.80;;;;;;4974593;28;21608;-52
2022/03/20 05:28:34;;;;;;;14.37;9.20;;;5.00;1.00;;;;;;4973697;28;20218;-52
2022/03/20 05:31:02;;;;;;;15.23;9.03;;;5.00;1.00;;;;;;4974530;28;20226;-52
2022/03/20 05:33:31;;;;;;;16.73;9.37;;;5.00;17.90;;;;;;4978763;28;20201;-52
2022/03/20 05:35:58;;;;;;;13.17;9.13;;;5.00;1.00;;;;;;4977935;28;20246;-52
2022/03/20 05:38:25;;;;;;;12.97;8.60;;;5.10;1.00;;;;;;4975341;28;20311;-51
2022/03/20 05:41:43;;;;;;;14.47;8.67;;;5.10;1.00;;;;;;4974879;28;20214;-53
2022/03/20 05:43:39;;;;;;;15.57;9.90;;;5.10;1.00;;;;;;4974660;28;20443;-52
2022/03/20 05:46:06;;;;;;;14.17;9.57;;;5.00;99.90;;;;;;4975740;28;20294;-53
2022/03/20 05:48:35;;;;;;;12.93;9.23;;;5.00;1.00;;;;;;4975876;28;20303;-51
2022/03/20 05:51:02;;;;;;;18.37;10.30;;;5.00;99.90;;;;;;4975997;28;20674;-52
2022/03/20 05:53:29;;;;;;;14.63;9.33;;;5.10;99.90;;;;;;4976888;28;20253;-51
2022/03/20 05:58:42;;;;;;;15.07;9.43;;;5.00;81.10;;;;;;4976738;28;20231;-52
2022/03/20 06:01:09;;;;;;;13.50;10.00;;;5.10;1.00;;;;;;4974337;28;20239;-54
2022/03/20 06:03:37;;;;;;;16.20;9.73;;;5.20;1.00;;;;;;4975013;28;20272;-51
2022/03/20 06:06:06;;;;;;;15.03;10.63;;;5.10;1.00;;;;;;4978485;28;20225;-51
2022/03/20 06:08:35;;;;;;;15.17;10.00;;;5.20;1.00;;;;;;4975105;28;20244;-53
2022/03/20 06:11:02;;;;;;;17.83;11.23;;;5.20;1.00;;;;;;4975009;28;20564;-51
2022/03/20 06:13:31;;;;;;;17.63;11.00;;;5.20;1.00;;;;;;4974653;28;20202;-50
2022/03/20 06:15:58;;;;;;;15.67;10.63;;;5.20;1.00;;;;;;4976485;28;20261;-53
2022/03/20 06:18:28;;;;;;;15.50;9.53;;;5.20;1.00;;;;;;4975277;28;20290;-52
2022/03/20 06:20:57;;;;;;;16.07;11.13;;;5.20;1.00;;;;;;4975608;28;20264;-51
2022/03/20 06:23:24;;;;;;;14.00;9.67;;;5.30;1.00;;;;;;4976040;28;20202;-51
2022/03/20 06:25:52;;;;;;;14.87;10.27;;;5.30;1.00;;;;;;4977291;28;20198;-52
2022/03/20 06:28:22;;;;;;;18.20;10.13;;;5.30;1.00;;;;;;4976279;28;20199;-55
2022/03/20 06:30:49;;;;;;;15.40;10.63;;;5.30;1.00;;;;;;4975900;28;20203;-53
2022/03/20 06:33:16;;;;;;;16.70;10.27;;;5.30;1.00;;;;;;4976629;28;20201;-53
2022/03/20 06:35:43;;;;;;;18.60;10.17;;;5.30;1.00;;;;;;4977180;28;20225;-52
2022/03/20 06:38:13;;;;;;;18.00;10.73;;;5.40;1.00;;;;;;4975202;28;20198;-52
2022/03/20 06:40:40;;;;;;;15.87;10.70;;;5.50;1.00;;;;;;4974914;28;20293;-53
2022/03/20 06:43:07;;;;;;;18.87;11.80;;;5.60;99.90;;;;;;4978088;28;20330;-56
2022/03/20 06:45:34;;;;;;;16.73;10.43;;;5.60;99.90;;;;;;4978287;28;20293;-53
2022/03/20 06:48:02;;;;;;;17.63;10.53;;;5.70;99.90;;;;;;4977883;28;20207;-52
2022/03/20 06:50:29;;;;;;;16.03;10.83;;;5.70;99.90;;;;;;4977472;28;20238;-53
2022/03/20 06:53:02;;;;;;;17.70;11.87;;;5.70;99.90;;;;;;4979581;28;20332;-52
2022/03/20 06:55:30;;;;;;;18.20;11.33;;;5.70;99.90;;;;;;4979710;28;20237;-51
2022/03/20 06:58:00;;;;;;;18.90;11.63;;;5.70;99.90;;;;;;4979806;28;20284;-51
2022/03/20 07:00:30;;;;;;;17.40;11.37;;;5.80;99.90;;;;;;4974383;28;20458;-52
2022/03/20 07:03:03;;;;;;;18.17;12.27;;;5.80;99.90;;;;;;4977431;28;20203;-50
2022/03/20 07:05:31;;;;;;;17.00;12.13;;;5.80;98.50;;;;;;4980043;28;20383;-53
2022/03/20 07:08:01;;;;;;;16.57;11.07;;;5.80;99.90;;;;;;4979052;28;20285;-52
2022/03/20 07:10:28;;;;;;;18.87;12.07;;;5.90;1.00;;;;;;4978123;28;20345;-53
2022/03/20 07:13:48;;;;;;;15.93;11.73;;;5.90;1.00;;;;;;4978650;28;20661;-51
2022/03/20 07:15:45;;;;;;;15.20;10.83;;;5.80;1.00;;;;;;4977259;28;20268;-51
2022/03/20 07:18:15;;;;;;;14.90;10.47;;;6.00;1.00;;;;;;4978157;28;21040;-51
2022/03/20 07:20:46;;;;;;;14.90;10.73;;;5.90;1.00;;;;;;4979808;28;20321;-53
2022/03/20 07:23:14;;;;;;;19.70;11.23;;;5.90;1.00;;;;;;4979659;28;20223;-53
2022/03/20 07:31:15;;;;;;;13.77;10.50;;;6.00;1.00;;;;;;4975991;28;20659;-51
2022/03/20 07:33:42;;;;;;;14.83;9.77;;;6.10;1.00;;;;;;4979881;28;20207;-53
2022/03/20 07:36:09;;;;;;;18.63;11.03;;;6.10;1.00;;;;;;4978919;28;20671;-50
2022/03/20 07:38:36;;;;;;;14.70;10.53;;;6.00;1.00;;;;;;4979264;28;20279;-52
2022/03/20 07:41:03;;;;;;;14.83;10.57;;;6.10;1.00;;;;;;4976533;28;20646;-51
2022/03/20 07:43:30;;;;;;;19.57;10.97;;;6.20;1.00;;;;;;4976846;28;20204;-52
2022/03/20 07:45:56;;;;;;;20.67;10.37;;;6.30;1.00;;;;;;4975979;28;20334;-52
2022/03/20 07:48:24;;;;;;;18.97;10.83;;;6.60;1.00;;;;;;4977222;28;20693;-51
2022/03/20 07:50:50;;;;;;;16.33;10.70;;;6.60;1.00;;;;;;4977822;28;20290;-51
2022/03/20 07:53:17;;;;;;;16.77;10.40;;;6.70;1.00;;;;;;4972467;28;20683;-54
2022/03/20 07:55:45;;;;;;;18.67;11.57;;;6.60;1.00;;;;;;4977050;28;20219;-51
2022/03/20 07:58:21;;;;;;;18.37;11.07;;;6.40;1.00;;;;;;4977744;28;20324;-55
2022/03/20 08:00:48;;;;;;;17.13;11.43;;;6.30;1.00;;;;;;4977645;28;20203;-51
2022/03/20 08:03:15;;;;;;;16.40;11.30;;;6.20;1.00;;;;;;4977758;28;20203;-51
2022/03/20 08:05:43;;;;;;;16.17;10.90;;;6.20;1.00;;;;;;4976384;28;20216;-53
2022/03/20 08:08:14;;;;;;;16.30;11.07;;;6.20;1.00;;;;;;4977952;28;20542;-51
2022/03/20 08:10:42;;;;;;;17.63;11.20;;;6.30;1.00;;;;;;4977108;28;20199;-52
2022/03/20 08:13:12;;;;;;;16.23;11.03;;;6.40;1.00;;;;;;4977323;28;20238;-53
2022/03/20 08:15:39;;;;;;;17.77;11.17;;;6.40;1.00;;;;;;4973461;28;20204;-52
2022/03/20 08:18:07;;;;;;;19.07;11.30;;;6.30;1.00;;;;;;4977104;28;20207;-53
2022/03/20 08:20:35;;;;;;;16.53;10.63;;;6.30;1.00;;;;;;4976546;28;20677;-52
2022/03/20 08:23:04;;;;;;;16.17;11.50;;;6.30;1.00;;;;;;4977397;28;20210;-53
2022/03/20 08:25:31;;;;;;;16.60;11.43;;;6.20;1.00;;;;;;4974641;28;20221;-51
2022/03/20 08:27:58;;;;;;;15.27;10.27;;;6.20;1.00;;;;;;4977212;28;20694;-52
2022/03/20 08:30:25;;;;;;;16.20;11.00;;;6.30;1.00;;;;;;4979041;28;20242;-50
2022/03/20 08:32:53;;;;;;;17.03;11.07;;;6.20;1.00;;;;;;4975052;28;20239;-51
2022/03/20 08:35:20;;;;;;;19.57;11.50;;;6.10;1.00;;;;;;4974782;28;20263;-51
2022/03/20 08:37:49;;;;;;;13.80;9.70;;;6.10;1.00;;;;;;4978114;28;20204;-50
2022/03/20 08:40:18;;;;;;;21.03;11.73;;;6.20;1.00;;;;;;4976094;28;20758;-51
2022/03/20 08:42:47;;;;;;;15.83;10.77;;;6.20;1.00;;;;;;4978289;28;20384;-52
2022/03/20 08:45:15;;;;;;;17.43;11.20;;;6.20;1.00;;;;;;4974481;28;20690;-50
2022/03/20 08:47:44;;;;;;;17.67;11.43;;;6.30;1.00;;;;;;4973357;28;20207;-51
2022/03/20 08:50:13;;;;;;;21.50;11.90;;;6.40;1.00;;;;;;4971372;28;21912;-51
2022/03/20 08:52:42;;;;;;;16.67;11.17;;;6.40;1.00;;;;;;4977912;28;20207;-54
2022/03/20 08:55:12;;;;;;;18.40;11.57;;;6.60;1.00;;;;;;4978508;28;20238;-54
2022/03/20 08:57:47;;;;;;;19.33;11.73;;;6.70;99.90;;;;;;4969014;28;20293;-52
2022/03/20 09:00:16;;;;;;;19.67;11.97;;;6.60;1.00;;;;;;4973613;28;20299;-52
2022/03/20 09:02:44;;;;;;;19.57;12.10;;;6.60;99.90;;;;;;4972684;28;20273;-51
2022/03/20 09:05:12;;;;;;;18.17;11.53;;;6.50;1.00;;;;;;4974184;28;20270;-51
2022/03/20 09:07:39;;;;;;;17.07;11.83;;;6.50;99.90;;;;;;4973187;28;20323;-51
2022/03/20 09:10:08;;;;;;;18.57;12.20;;;6.50;1.00;;;;;;4974175;28;20298;-55
2022/03/20 09:12:37;;;;;;;16.43;11.47;;;6.40;1.00;;;;;;4974251;28;20236;-52
2022/03/20 09:15:06;;;;;;;19.17;12.27;;;6.50;1.00;;;;;;4973814;28;20274;-52
2022/03/20 09:20:19;;;;;;;17.27;11.77;;;6.30;1.00;;;;;;4976770;28;20304;-53
2022/03/20 09:22:46;;;;;;;19.10;12.87;;;6.40;1.00;;;;;;4970490;28;20282;-52
2022/03/20 09:25:13;;;;;;;16.67;12.40;;;6.40;1.00;;;;;;4973400;28;20285;-54
2022/03/20 09:27:40;;;;;;;18.40;12.37;;;6.40;1.00;;;;;;4969967;28;20242;-52
2022/03/20 09:30:07;;;;;;;20.07;13.17;;;6.60;1.00;;;;;;4974606;28;20203;-52
2022/03/20 09:32:34;;;;;;;20.83;13.20;;;6.60;1.00;;;;;;4973299;28;20294;-51
2022/03/20 09:35:01;;;;;;;21.17;11.90;;;6.70;1.00;;;;;;4976350;28;20206;-53
2022/03/20 09:37:28;;;;;;;17.50;11.67;;;6.70;1.00;;;;;;4977816;28;20214;-52
2022/03/20 09:39:55;;;;;;;17.73;12.17;;;6.80;1.00;;;;;;4978783;28;20207;-53
2022/03/20 09:42:22;;;;;;;19.53;11.97;;;6.80;1.00;;;;;;4974960;28;20209;-50
2022/03/20 09:44:51;;;;;;;15.33;11.63;;;7.00;1.00;;;;;;4974866;28;20319;-52
2022/03/20 09:47:18;;;;;;;15.13;11.63;;;7.20;99.90;;;;;;4973650;28;20262;-50
2022/03/20 09:49:46;;;;;;;19.43;13.30;;;7.30;99.90;;;;;;4973659;28;20311;-54
2022/03/20 09:52:14;;;;;;;17.87;12.50;;;7.90;99.90;;;;;;4976069;28;20298;-50
2022/03/20 09:54:41;;;;;;;17.30;12.20;;;8.20;99.90;;;;;;4975868;28;20301;-51
2022/03/20 09:57:10;;;;;;;16.73;11.90;;;8.40;99.90;;;;;;4976505;28;20620;-50
2022/03/20 09:59:39;;;;;;;17.50;12.03;;;8.30;99.90;;;;;;4972939;28;20284;-52
2022/03/20 10:02:08;;;;;;;18.63;13.07;;;8.40;99.90;;;;;;4971291;28;20212;-50
2022/03/20 10:05:01;;;;;;;17.80;12.70;;;8.30;99.90;;;;;;4970538;28;20213;-50
2022/03/20 10:07:39;;;;;;;18.73;12.67;;;8.50;99.90;;;;;;4971587;28;20398;-53
2022/03/20 10:10:06;;;;;;;17.80;12.20;;;8.40;99.90;;;;;;4972599;28;20236;-54
2022/03/20 10:12:35;;;;;;;20.27;12.00;;;8.00;99.90;;;;;;4971783;28;20296;-52
2022/03/20 10:15:09;;;;;;;18.10;12.77;;;7.80;99.90;;;;;;4973183;28;20314;-50
2022/03/20 10:17:39;;;;;;;19.00;12.63;;;7.80;99.90;;;;;;4975684;28;20274;-52
2022/03/20 10:20:14;;;;;;;18.23;13.37;;;7.50;99.90;;;;;;4988302;28;20205;-51
2022/03/20 10:22:42;;;;;;;20.00;13.37;;;7.50;99.90;;;;;;4992663;28;20822;-53
2022/03/20 10:25:13;;;;;;;19.70;13.10;;;7.50;99.90;;;;;;4981312;28;20311;-51
2022/03/20 10:27:53;;;;;;;19.40;13.97;;;7.40;99.90;;;;;;4980366;28;20659;-50
2022/03/20 10:30:20;;;;;;;17.53;12.27;;;7.40;99.90;;;;;;4978538;28;20291;-51
2022/03/20 10:32:48;;;;;;;23.27;13.93;;;7.50;99.90;;;;;;4980175;28;20302;-51
2022/03/20 10:35:17;;;;;;;18.97;13.47;;;7.50;99.90;;;;;;4979154;28;20219;-50
2022/03/20 10:37:55;;;;;;;17.70;12.57;;;7.50;99.90;;;;;;4978195;28;20268;-50
2022/03/20 10:40:24;;;;;;;19.30;13.60;;;7.50;1.00;;;;;;4983197;28;20242;-53
2022/03/20 10:43:08;;;;;;;20.40;15.00;;;7.50;1.00;;;;;;4979867;28;20277;-51
2022/03/20 10:46:00;;;;;;;25.13;16.33;;;7.10;1.00;;;;;;4978467;28;20243;-52
2022/03/20 10:48:34;;;;;;;24.33;15.77;;;6.90;1.00;;;;;;4976571;28;20205;-54
2022/03/20 10:51:02;;;;;;;28.13;16.27;;;6.90;99.90;;;;;;4977553;28;20275;-53
2022/03/20 10:53:29;;;;;;;23.53;16.87;;;7.00;1.00;;;;;;4979033;28;20824;-51
2022/03/20 10:56:07;;;;;;;26.40;16.87;;;7.00;99.90;;;;;;4976394;28;20216;-51
2022/03/20 10:58:40;;;;;;;25.20;16.80;;;7.00;99.90;;;;;;4976927;28;20743;-52
2022/03/20 11:01:08;;;;;;;27.47;17.93;;;7.00;1.00;;;;;;4979419;28;20240;-52
2022/03/20 11:03:37;;;;;;;26.17;17.50;;;7.10;1.00;;;;;;4977995;28;20298;-51
2022/03/20 11:06:08;;;;;;;26.53;17.87;;;7.10;99.90;;;;;;4976612;28;20395;-50
2022/03/20 11:08:37;;;;;;;30.27;18.40;;;7.10;1.00;;;;;;4976156;28;20204;-54
2022/03/20 11:11:05;;;;;;;26.30;17.53;;;7.00;1.00;;;;;;4977131;28;20278;-51
2022/03/20 11:13:35;;;;;;;29.37;18.00;;;6.90;1.00;;;;;;4977858;28;20230;-52
2022/03/20 11:16:04;;;;;;;28.90;18.03;;;6.80;1.00;;;;;;4978483;28;20208;-51
2022/03/20 11:18:33;;;;;;;26.93;18.90;;;6.80;1.00;;;;;;4977741;28;20300;-51
2022/03/20 11:21:03;;;;;;;27.20;17.17;;;6.90;1.00;;;;;;4978106;28;20300;-53
2022/03/20 11:23:32;;;;;;;24.93;17.23;;;6.90;1.00;;;;;;4974870;28;20613;-51
2022/03/20 11:26:01;;;;;;;26.60;17.90;;;7.00;1.00;;;;;;4978029;28;20675;-53
2022/03/20 11:28:43;;;;;;;24.43;17.60;;;6.90;1.00;;;;;;4971807;28;20225;-53
2022/03/20 11:31:10;;;;;;;25.33;17.70;;;7.00;1.00;;;;;;4971356;28;20235;-52
2022/03/20 11:33:41;;;;;;;27.10;17.97;;;6.90;1.00;;;;;;4976431;28;20207;-54
2022/03/20 11:36:12;;;;;;;27.77;18.20;;;7.00;99.90;;;;;;4976655;28;20296;-52
2022/03/20 11:38:40;;;;;;;24.77;17.07;;;7.00;99.90;;;;;;4975265;28;20294;-54
2022/03/20 11:41:12;;;;;;;31.33;18.30;;;7.10;1.00;;;;;;4977641;28;20637;-52
2022/03/20 11:44:06;;;;;;;25.63;18.13;;;6.90;99.90;;;;;;4974936;28;20216;-51
2022/03/20 11:46:34;;;;;;;27.77;18.20;;;7.00;99.90;;;;;;4977052;28;20244;-52
2022/03/20 11:49:13;;;;;;;24.13;17.60;;;7.20;99.90;;;;;;4970178;28;20662;-51
2022/03/20 11:52:09;;;;;;;28.67;17.83;;;7.40;1.00;;;;;;4972421;28;20552;-49
2022/03/20 11:54:42;;;;;;;26.53;17.63;;;7.40;1.00;;;;;;4973026;28;20896;-49
2022/03/20 11:57:24;;;;;;;27.83;17.57;;;7.50;1.00;;;;;;4968031;28;20208;-51
2022/03/20 11:59:54;;;;;;;26.23;17.80;;;7.50;1.00;;;;;;4974035;28;20222;-51
2022/03/20 12:02:50;;;;;;;26.07;17.83;;;7.60;1.00;;;;;;4972607;28;20653;-52
2022/03/20 12:05:23;;;;;;;29.03;18.23;;;7.40;1.00;;;;;;4971654;28;20621;-53
2022/03/20 12:08:08;;;;;;;25.17;18.43;;;7.40;1.00;;;;;;4974637;28;20355;-50
2022/03/20 12:11:03;;;;;;;26.37;17.73;;;7.50;1.00;;;;;;4972890;28;21396;-53
2022/03/20 12:13:44;;;;;;;26.33;18.43;;;7.60;1.00;;;;;;4974001;28;20340;-51
2022/03/20 12:16:11;;;;;;;25.23;18.33;;;7.70;1.00;;;;;;4974859;28;20235;-50
2022/03/20 12:19:06;;;;;;;25.63;17.53;;;7.70;1.00;;;;;;4973674;28;20291;-50
2022/03/20 12:21:56;;;;;;;27.67;17.30;;;7.70;99.90;;;;;;4975574;28;20324;-51
2022/03/20 12:24:35;;;;;;;26.57;17.97;;;7.70;99.90;;;;;;4972195;28;20274;-53
2022/03/20 12:27:31;;;;;;;27.10;18.20;;;8.00;99.90;;;;;;4973940;28;20228;-52
2022/03/20 12:30:15;;;;;;;27.20;17.40;;;7.90;99.90;;;;;;4972383;28;20253;-53
2022/03/20 12:32:48;;;;;;;25.43;17.97;;;7.90;99.90;;;;;;4973187;28;20297;-51
2022/03/20 12:35:24;;;;;;;27.77;17.73;;;7.90;1.00;;;;;;4975854;28;20238;-53
2022/03/20 12:37:57;;;;;;;22.33;17.03;;;7.90;1.00;;;;;;4973172;28;20217;-51
2022/03/20 12:40:33;;;;;;;28.50;19.17;;;8.10;1.00;;;;;;4975089;28;20243;-50
2022/03/20 12:43:20;;;;;;;25.83;17.23;;;8.00;1.00;;;;;;4971269;28;20307;-53
2022/03/20 12:45:52;;;;;;;23.70;17.37;;;8.00;91.00;;;;;;4973097;28;20240;-52
2022/03/20 12:48:21;;;;;;;27.00;17.73;;;8.20;1.00;;;;;;4973066;28;20213;-52
2022/03/20 12:50:52;;;;;;;28.67;17.00;;;8.30;1.00;;;;;;4973625;28;20243;-52
2022/03/20 12:53:21;;;;;;;25.20;17.77;;;8.40;1.00;;;;;;4974259;28;20212;-49
2022/03/20 12:56:02;;;;;;;26.67;17.43;;;8.60;1.00;;;;;;4971356;28;20273;-53
2022/03/20 12:58:30;;;;;;;23.93;17.87;;;8.50;1.00;;;;;;4970830;28;20451;-50
2022/03/20 13:00:58;;;;;;;24.43;17.27;;;8.40;99.90;;;;;;4972216;28;20308;-51
2022/03/20 13:03:30;;;;;;;23.43;16.77;;;8.50;1.00;;;;;;4978152;28;20235;-50
2022/03/20 13:05:58;;;;;;;23.07;16.77;;;8.50;25.30;;;;;;4972311;28;20297;-49
2022/03/20 13:08:30;;;;;;;27.33;18.53;;;8.50;1.00;;;;;;4972052;28;20749;-53
2022/03/20 13:11:06;;;;;;;25.50;17.20;;;8.60;1.00;;;;;;4971915;28;20240;-52
2022/03/20 13:13:35;;;;;;;25.73;17.60;;;8.50;99.90;;;;;;4973383;28;20553;-50
2022/03/20 13:16:14;;;;;;;25.63;17.70;;;8.50;99.90;;;;;;4978074;28;20255;-51
2022/03/20 13:18:41;;;;;;;27.67;18.60;;;8.40;99.90;;;;;;4978352;28;20787;-51
2022/03/20 13:21:08;;;;;;;22.97;17.10;;;8.60;1.00;;;;;;4977179;28;20694;-51
2022/03/20 13:23:35;;;;;;;24.90;16.33;;;8.70;99.90;;;;;;4975602;28;20688;-51
2022/03/20 13:26:02;;;;;;;25.07;17.07;;;8.70;58.60;;;;;;4978202;28;20724;-50
2022/03/20 13:28:33;;;;;;;24.53;16.83;;;8.90;1.00;;;;;;4978244;28;20611;-49
2022/03/20 13:31:02;;;;;;;26.00;17.47;;;8.90;1.00;;;;;;4977650;28;20290;-50
2022/03/20 13:33:30;;;;;;;23.37;16.57;;;8.90;1.00;;;;;;4976069;28;20199;-50